sensor_id;sensor_type;location;lat;lon;timestamp;temperature;humidity
19552;DHT22;9921;47.186;9.778;2023-09-07T00:01:29;20.60;99.90
19552;DHT22;9921;47.186;9.778;2023-09-07T00:03:56;20.50;99.90
19552;DHT22;9921;47.186;9.778;2023-09-07T00:06:23;20.50;99.90
19552;DHT22;9921;47.186;9.778;2023-09-07T00:08:52;20.50;99.90
19552;DHT22;9921;47.186;9.778;2023-09-07T00:11:18;20.50;99.90
19552;DHT22;9921;47.186;9.778;2023-09-07T00:13:45;20.50;99.90
19552;DHT22;9921;47.186;9.778;2023-09-07T00:16:12;20.50;99.90
19552;DHT22;9921;47.186;9.778;2023-09-07T00:18:39;20.50;99.90
19552;DHT22;9921;47.186;9.778;2023-09-07T00:21:06;20.50;99.90
19552;DHT22;9921;47.186;9.778;2023-09-07T00:23:32;20.50;99.90
19552;DHT22;9921;47.186;9.778;2023-09-07T00:26:01;20.40;99.90
19552;DHT22;9921;47.186;9.778;2023-09-07T00:28:28;20.40;99.90
19552;DHT22;9921;47.186;9.778;2023-09-07T00:30:54;20.30;99.90
19552;DHT22;9921;47.186;9.778;2023-09-07T00:33:21;20.40;99.90
19552;DHT22;9921;47.186;9.778;2023-09-07T00:35:48;20.30;99.90
19552;DHT22;9921;47.186;9.778;2023-09-07T00:38:15;20.30;99.90
19552;DHT22;9921;47.186;9.778;2023-09-07T00:40:43;20.20;99.90
19552;DHT22;9921;47.186;9.778;2023-09-07T00:43:12;20.10;99.90
19552;DHT22;9921;47.186;9.778;2023-09-07T00:45:39;20.10;99.90
19552;DHT22;9921;47.186;9.778;2023-09-07T00:48:06;20.10;99.90
19552;DHT22;9921;47.186;9.778;2023-09-07T00:50:33;20.00;99.90
19552;DHT22;9921;47.186;9.778;2023-09-07T00:53:01;20.00;99.90
19552;DHT22;9921;47.186;9.778;2023-09-07T00:55:29;20.00;99.90
19552;DHT22;9921;47.186;9.778;2023-09-07T00:57:58;20.10;99.90
19552;DHT22;9921;47.186;9.778;2023-09-07T01:00:27;20.10;99.90
19552;DHT22;9921;47.186;9.778;2023-09-07T01:02:54;20.10;99.90
19552;DHT22;9921;47.186;9.778;2023-09-07T01:05:24;20.10;99.90
19552;DHT22;9921;47.186;9.778;2023-09-07T01:07:56;20.00;99.90
19552;DHT22;9921;47.186;9.778;2023-09-07T01:10:24;20.00;99.90
19552;DHT22;9921;47.186;9.778;2023-09-07T01:12:51;19.90;99.90
19552;DHT22;9921;47.186;9.778;2023-09-07T01:15:17;19.90;99.90
19552;DHT22;9921;47.186;9.778;2023-09-07T01:17:46;19.90;99.90
19552;DHT22;9921;47.186;9.778;2023-09-07T01:20:15;19.90;99.90
19552;DHT22;9921;47.186;9.778;2023-09-07T01:22:44;19.80;99.90
19552;DHT22;9921;47.186;9.778;2023-09-07T01:25:11;19.80;99.90
19552;DHT22;9921;47.186;9.778;2023-09-07T01:27:39;19.80;99.90
19552;DHT22;9921;47.186;9.778;2023-09-07T01:30:07;19.80;99.90
19552;DHT22;9921;47.186;9.778;2023-09-07T01:32:34;19.80;99.90
19552;DHT22;9921;47.186;9.778;2023-09-07T01:35:04;19.80;99.90
19552;DHT22;9921;47.186;9.778;2023-09-07T01:37:31;19.80;99.90
19552;DHT22;9921;47.186;9.778;2023-09-07T01:39:59;19.70;99.90
19552;DHT22;9921;47.186;9.778;2023-09-07T01:42:29;19.70;99.90
19552;DHT22;9921;47.186;9.778;2023-09-07T01:44:56;19.70;99.90
19552;DHT22;9921;47.186;9.778;2023-09-07T01:47:23;19.70;99.90
19552;DHT22;9921;47.186;9.778;2023-09-07T01:49:50;19.70;99.90
19552;DHT22;9921;47.186;9.778;2023-09-07T01:52:17;19.70;99.90
19552;DHT22;9921;47.186;9.778;2023-09-07T01:54:43;19.70;99.90
19552;DHT22;9921;47.186;9.778;2023-09-07T01:57:12;19.70;99.90
19552;DHT22;9921;47.186;9.778;2023-09-07T01:59:39;19.60;99.90
19552;DHT22;9921;47.186;9.778;2023-09-07T02:02:05;19.60;99.90
19552;DHT22;9921;47.186;9.778;2023-09-07T02:04:33;19.60;99.90
19552;DHT22;9921;47.186;9.778;2023-09-07T02:07:00;19.50;99.90
19552;DHT22;9921;47.186;9.778;2023-09-07T02:09:26;19.50;99.90
19552;DHT22;9921;47.186;9.778;2023-09-07T02:11:54;19.50;99.90
19552;DHT22;9921;47.186;9.778;2023-09-07T02:14:22;19.40;99.90
19552;DHT22;9921;47.186;9.778;2023-09-07T02:16:49;19.40;99.90
19552;DHT22;9921;47.186;9.778;2023-09-07T02:19:16;19.40;99.90
19552;DHT22;9921;47.186;9.778;2023-09-07T02:21:43;19.30;99.90
19552;DHT22;9921;47.186;9.778;2023-09-07T02:24:10;19.40;99.90
19552;DHT22;9921;47.186;9.778;2023-09-07T02:26:37;19.30;99.90
19552;DHT22;9921;47.186;9.778;2023-09-07T02:29:09;19.30;99.90
19552;DHT22;9921;47.186;9.778;2023-09-07T02:31:40;19.20;99.90
19552;DHT22;9921;47.186;9.778;2023-09-07T02:34:07;19.20;99.90
19552;DHT22;9921;47.186;9.778;2023-09-07T02:36:34;19.20;99.90
19552;DHT22;9921;47.186;9.778;2023-09-07T02:39:01;19.10;99.90
19552;DHT22;9921;47.186;9.778;2023-09-07T02:41:30;19.10;99.90
19552;DHT22;9921;47.186;9.778;2023-09-07T02:43:57;19.10;99.90
19552;DHT22;9921;47.186;9.778;2023-09-07T02:46:24;19.10;99.90
19552;DHT22;9921;47.186;9.778;2023-09-07T02:48:52;19.10;99.90
19552;DHT22;9921;47.186;9.778;2023-09-07T02:51:22;19.00;99.90
19552;DHT22;9921;47.186;9.778;2023-09-07T02:53:49;18.90;99.90
19552;DHT22;9921;47.186;9.778;2023-09-07T02:56:16;18.90;99.90
19552;DHT22;9921;47.186;9.778;2023-09-07T02:58:43;18.90;99.90
19552;DHT22;9921;47.186;9.778;2023-09-07T03:01:10;18.90;99.90
19552;DHT22;9921;47.186;9.778;2023-09-07T03:03:39;18.80;99.90
19552;DHT22;9921;47.186;9.778;2023-09-07T03:06:10;18.90;99.90
19552;DHT22;9921;47.186;9.778;2023-09-07T03:08:37;18.80;99.90
19552;DHT22;9921;47.186;9.778;2023-09-07T03:11:04;18.90;99.90
19552;DHT22;9921;47.186;9.778;2023-09-07T03:13:31;18.80;99.90
19552;DHT22;9921;47.186;9.778;2023-09-07T03:15:58;18.90;99.90
19552;DHT22;9921;47.186;9.778;2023-09-07T03:18:25;18.80;99.90
19552;DHT22;9921;47.186;9.778;2023-09-07T03:20:54;18.80;99.90
19552;DHT22;9921;47.186;9.778;2023-09-07T03:23:22;18.80;99.90
19552;DHT22;9921;47.186;9.778;2023-09-07T03:25:50;18.80;99.90
19552;DHT22;9921;47.186;9.778;2023-09-07T03:28:16;18.80;99.90
19552;DHT22;9921;47.186;9.778;2023-09-07T03:30:43;18.80;99.90
19552;DHT22;9921;47.186;9.778;2023-09-07T03:33:10;18.70;99.90
19552;DHT22;9921;47.186;9.778;2023-09-07T03:35:37;18.70;99.90
19552;DHT22;9921;47.186;9.778;2023-09-07T03:38:07;18.70;99.90
19552;DHT22;9921;47.186;9.778;2023-09-07T03:40:35;18.80;99.90
19552;DHT22;9921;47.186;9.778;2023-09-07T03:43:02;18.80;99.90
19552;DHT22;9921;47.186;9.778;2023-09-07T03:45:30;18.80;99.90
19552;DHT22;9921;47.186;9.778;2023-09-07T03:47:57;18.80;99.90
19552;DHT22;9921;47.186;9.778;2023-09-07T03:50:24;18.70;99.90
19552;DHT22;9921;47.186;9.778;2023-09-07T03:52:51;18.70;99.90
19552;DHT22;9921;47.186;9.778;2023-09-07T03:55:17;18.70;99.90
19552;DHT22;9921;47.186;9.778;2023-09-07T03:57:45;18.60;99.90
19552;DHT22;9921;47.186;9.778;2023-09-07T04:00:14;18.60;99.90
19552;DHT22;9921;47.186;9.778;2023-09-07T04:02:41;18.60;99.90
19552;DHT22;9921;47.186;9.778;2023-09-07T04:05:08;18.50;99.90
19552;DHT22;9921;47.186;9.778;2023-09-07T04:07:36;18.50;99.90
19552;DHT22;9921;47.186;9.778;2023-09-07T04:10:04;18.60;99.90
19552;DHT22;9921;47.186;9.778;2023-09-07T04:12:31;18.50;99.90
19552;DHT22;9921;47.186;9.778;2023-09-07T04:15:01;18.50;99.90
19552;DHT22;9921;47.186;9.778;2023-09-07T04:17:28;18.50;99.90
19552;DHT22;9921;47.186;9.778;2023-09-07T04:19:55;18.50;99.90
19552;DHT22;9921;47.186;9.778;2023-09-07T04:22:22;18.50;99.90
19552;DHT22;9921;47.186;9.778;2023-09-07T04:24:49;18.50;99.90
19552;DHT22;9921;47.186;9.778;2023-09-07T04:27:16;18.50;99.90
19552;DHT22;9921;47.186;9.778;2023-09-07T04:29:42;18.50;99.90
19552;DHT22;9921;47.186;9.778;2023-09-07T04:32:11;18.40;99.90
19552;DHT22;9921;47.186;9.778;2023-09-07T04:34:38;18.40;99.90
19552;DHT22;9921;47.186;9.778;2023-09-07T04:37:05;18.50;99.90
19552;DHT22;9921;47.186;9.778;2023-09-07T04:39:31;18.40;99.90
19552;DHT22;9921;47.186;9.778;2023-09-07T04:41:58;18.50;99.90
19552;DHT22;9921;47.186;9.778;2023-09-07T04:44:26;18.50;99.90
19552;DHT22;9921;47.186;9.778;2023-09-07T04:46:54;18.50;99.90
19552;DHT22;9921;47.186;9.778;2023-09-07T04:49:23;18.60;99.90
19552;DHT22;9921;47.186;9.778;2023-09-07T04:51:53;18.60;99.90
19552;DHT22;9921;47.186;9.778;2023-09-07T04:54:20;18.60;99.90
19552;DHT22;9921;47.186;9.778;2023-09-07T04:56:47;18.60;99.90
19552;DHT22;9921;47.186;9.778;2023-09-07T04:59:14;18.70;99.90
19552;DHT22;9921;47.186;9.778;2023-09-07T05:01:41;18.70;99.90
19552;DHT22;9921;47.186;9.778;2023-09-07T05:04:07;18.70;99.90
19552;DHT22;9921;47.186;9.778;2023-09-07T05:06:36;18.70;99.90
19552;DHT22;9921;47.186;9.778;2023-09-07T05:09:04;18.70;99.90
19552;DHT22;9921;47.186;9.778;2023-09-07T05:11:31;18.70;99.90
19552;DHT22;9921;47.186;9.778;2023-09-07T05:14:00;18.70;99.90
19552;DHT22;9921;47.186;9.778;2023-09-07T05:16:27;18.70;99.90
19552;DHT22;9921;47.186;9.778;2023-09-07T05:18:54;18.70;99.90
19552;DHT22;9921;47.186;9.778;2023-09-07T05:21:21;18.70;99.90
19552;DHT22;9921;47.186;9.778;2023-09-07T05:23:49;18.70;99.90
19552;DHT22;9921;47.186;9.778;2023-09-07T05:26:20;18.70;99.90
19552;DHT22;9921;47.186;9.778;2023-09-07T05:28:47;18.70;99.90
19552;DHT22;9921;47.186;9.778;2023-09-07T05:31:14;18.60;99.90
19552;DHT22;9921;47.186;9.778;2023-09-07T05:33:41;18.60;99.90
19552;DHT22;9921;47.186;9.778;2023-09-07T05:36:08;18.60;99.90
19552;DHT22;9921;47.186;9.778;2023-09-07T05:38:35;18.60;99.90
19552;DHT22;9921;47.186;9.778;2023-09-07T05:41:04;18.60;99.90
19552;DHT22;9921;47.186;9.778;2023-09-07T05:43:31;18.60;99.90
19552;DHT22;9921;47.186;9.778;2023-09-07T05:45:57;18.60;99.90
19552;DHT22;9921;47.186;9.778;2023-09-07T05:48:24;18.60;99.90
19552;DHT22;9921;47.186;9.778;2023-09-07T05:50:51;18.60;99.90
19552;DHT22;9921;47.186;9.778;2023-09-07T05:53:19;18.60;99.90
19552;DHT22;9921;47.186;9.778;2023-09-07T05:55:46;18.60;99.90
19552;DHT22;9921;47.186;9.778;2023-09-07T05:58:14;18.50;99.90
19552;DHT22;9921;47.186;9.778;2023-09-07T06:00:42;18.50;99.90
19552;DHT22;9921;47.186;9.778;2023-09-07T06:03:09;18.50;99.90
19552;DHT22;9921;47.186;9.778;2023-09-07T06:05:36;18.50;99.90
19552;DHT22;9921;47.186;9.778;2023-09-07T06:08:04;18.50;99.90
19552;DHT22;9921;47.186;9.778;2023-09-07T06:10:32;18.60;99.90
19552;DHT22;9921;47.186;9.778;2023-09-07T06:12:58;18.60;99.90
19552;DHT22;9921;47.186;9.778;2023-09-07T06:15:28;18.60;99.90
19552;DHT22;9921;47.186;9.778;2023-09-07T06:17:55;18.70;99.90
19552;DHT22;9921;47.186;9.778;2023-09-07T06:20:22;18.80;99.90
19552;DHT22;9921;47.186;9.778;2023-09-07T06:22:49;18.80;99.90
19552;DHT22;9921;47.186;9.778;2023-09-07T06:25:16;18.90;99.90
19552;DHT22;9921;47.186;9.778;2023-09-07T06:27:43;19.00;99.90
19552;DHT22;9921;47.186;9.778;2023-09-07T06:30:10;19.10;99.90
19552;DHT22;9921;47.186;9.778;2023-09-07T06:32:38;19.20;99.90
19552;DHT22;9921;47.186;9.778;2023-09-07T06:35:06;19.30;99.90
19552;DHT22;9921;47.186;9.778;2023-09-07T06:37:33;19.40;99.90
19552;DHT22;9921;47.186;9.778;2023-09-07T06:40:01;19.50;99.90
19552;DHT22;9921;47.186;9.778;2023-09-07T06:42:29;19.60;99.90
19552;DHT22;9921;47.186;9.778;2023-09-07T06:44:57;19.60;99.90
19552;DHT22;9921;47.186;9.778;2023-09-07T06:47:24;19.70;99.90
19552;DHT22;9921;47.186;9.778;2023-09-07T06:49:52;19.80;99.90
19552;DHT22;9921;47.186;9.778;2023-09-07T06:52:19;19.90;99.90
19552;DHT22;9921;47.186;9.778;2023-09-07T06:54:46;20.00;99.90
19552;DHT22;9921;47.186;9.778;2023-09-07T06:57:15;20.10;99.90
19552;DHT22;9921;47.186;9.778;2023-09-07T06:59:42;20.10;99.90
19552;DHT22;9921;47.186;9.778;2023-09-07T07:02:09;20.10;99.90
19552;DHT22;9921;47.186;9.778;2023-09-07T07:04:36;20.20;99.90
19552;DHT22;9921;47.186;9.778;2023-09-07T07:07:05;20.30;99.90
19552;DHT22;9921;47.186;9.778;2023-09-07T07:09:32;20.40;99.90
19552;DHT22;9921;47.186;9.778;2023-09-07T07:11:59;20.40;99.90
19552;DHT22;9921;47.186;9.778;2023-09-07T07:14:26;20.50;99.90
19552;DHT22;9921;47.186;9.778;2023-09-07T07:16:53;20.60;99.90
19552;DHT22;9921;47.186;9.778;2023-09-07T07:19:20;20.60;99.90
19552;DHT22;9921;47.186;9.778;2023-09-07T07:21:48;20.60;99.90
19552;DHT22;9921;47.186;9.778;2023-09-07T07:24:19;20.70;99.90
19552;DHT22;9921;47.186;9.778;2023-09-07T07:26:46;20.80;99.90
19552;DHT22;9921;47.186;9.778;2023-09-07T07:29:13;20.90;99.90
19552;DHT22;9921;47.186;9.778;2023-09-07T07:31:40;20.90;99.90
19552;DHT22;9921;47.186;9.778;2023-09-07T07:34:06;21.10;99.90
19552;DHT22;9921;47.186;9.778;2023-09-07T07:36:33;21.20;99.90
19552;DHT22;9921;47.186;9.778;2023-09-07T07:39:02;21.30;99.90
19552;DHT22;9921;47.186;9.778;2023-09-07T07:41:31;21.40;99.90
19552;DHT22;9921;47.186;9.778;2023-09-07T07:43:58;21.50;99.90
19552;DHT22;9921;47.186;9.778;2023-09-07T07:46:25;21.70;99.90
19552;DHT22;9921;47.186;9.778;2023-09-07T07:48:52;21.80;99.90
19552;DHT22;9921;47.186;9.778;2023-09-07T07:51:19;21.90;99.90
19552;DHT22;9921;47.186;9.778;2023-09-07T07:53:46;22.00;99.90
19552;DHT22;9921;47.186;9.778;2023-09-07T07:56:16;22.20;99.90
19552;DHT22;9921;47.186;9.778;2023-09-07T07:58:45;22.30;99.90
19552;DHT22;9921;47.186;9.778;2023-09-07T08:01:16;22.50;99.90
19552;DHT22;9921;47.186;9.778;2023-09-07T08:03:43;23.10;99.90
19552;DHT22;9921;47.186;9.778;2023-09-07T08:06:10;24.40;99.90
19552;DHT22;9921;47.186;9.778;2023-09-07T08:08:39;26.20;99.90
19552;DHT22;9921;47.186;9.778;2023-09-07T08:11:06;28.10;99.90
19552;DHT22;9921;47.186;9.778;2023-09-07T08:13:34;29.70;99.90
19552;DHT22;9921;47.186;9.778;2023-09-07T08:16:03;31.00;99.90
19552;DHT22;9921;47.186;9.778;2023-09-07T08:18:32;32.10;99.90
19552;DHT22;9921;47.186;9.778;2023-09-07T08:21:00;33.00;99.90
19552;DHT22;9921;47.186;9.778;2023-09-07T08:23:27;33.60;99.90
19552;DHT22;9921;47.186;9.778;2023-09-07T08:25:54;34.20;99.90
19552;DHT22;9921;47.186;9.778;2023-09-07T08:28:24;34.70;99.90
19552;DHT22;9921;47.186;9.778;2023-09-07T08:30:52;35.00;99.90
19552;DHT22;9921;47.186;9.778;2023-09-07T08:33:22;35.30;99.90
19552;DHT22;9921;47.186;9.778;2023-09-07T08:35:55;35.50;99.40
19552;DHT22;9921;47.186;9.778;2023-09-07T08:38:23;35.90;98.20
19552;DHT22;9921;47.186;9.778;2023-09-07T08:40:54;36.10;97.60
19552;DHT22;9921;47.186;9.778;2023-09-07T08:43:21;36.30;97.00
19552;DHT22;9921;47.186;9.778;2023-09-07T08:45:51;36.60;96.80
19552;DHT22;9921;47.186;9.778;2023-09-07T08:48:20;36.90;96.40
19552;DHT22;9921;47.186;9.778;2023-09-07T08:50:49;37.10;95.70
19552;DHT22;9921;47.186;9.778;2023-09-07T08:53:19;37.50;94.40
19552;DHT22;9921;47.186;9.778;2023-09-07T08:55:46;37.60;93.80
19552;DHT22;9921;47.186;9.778;2023-09-07T08:58:13;37.70;93.30
19552;DHT22;9921;47.186;9.778;2023-09-07T09:00:42;37.80;92.90
19552;DHT22;9921;47.186;9.778;2023-09-07T09:03:09;37.70;92.40
19552;DHT22;9921;47.186;9.778;2023-09-07T09:05:39;37.60;92.10
19552;DHT22;9921;47.186;9.778;2023-09-07T09:08:07;37.50;92.00
19552;DHT22;9921;47.186;9.778;2023-09-07T09:10:33;37.40;91.80
19552;DHT22;9921;47.186;9.778;2023-09-07T09:13:00;37.50;91.80
19552;DHT22;9921;47.186;9.778;2023-09-07T09:15:28;37.70;92.00
19552;DHT22;9921;47.186;9.778;2023-09-07T09:17:55;37.90;91.40
19552;DHT22;9921;47.186;9.778;2023-09-07T09:20:23;37.90;90.50
19552;DHT22;9921;47.186;9.778;2023-09-07T09:22:54;37.90;90.30
19552;DHT22;9921;47.186;9.778;2023-09-07T09:25:22;37.90;90.20
19552;DHT22;9921;47.186;9.778;2023-09-07T09:27:49;37.80;90.00
19552;DHT22;9921;47.186;9.778;2023-09-07T09:30:16;37.90;90.70
19552;DHT22;9921;47.186;9.778;2023-09-07T09:32:43;38.20;90.70
19552;DHT22;9921;47.186;9.778;2023-09-07T09:35:10;38.50;90.20
19552;DHT22;9921;47.186;9.778;2023-09-07T09:37:44;38.80;89.60
19552;DHT22;9921;47.186;9.778;2023-09-07T09:40:14;39.10;89.80
19552;DHT22;9921;47.186;9.778;2023-09-07T09:42:42;39.30;88.40
19552;DHT22;9921;47.186;9.778;2023-09-07T09:45:10;39.30;86.20
19552;DHT22;9921;47.186;9.778;2023-09-07T09:47:39;39.40;88.40
19552;DHT22;9921;47.186;9.778;2023-09-07T09:50:10;39.50;86.80
19552;DHT22;9921;47.186;9.778;2023-09-07T09:52:39;39.50;85.10
19552;DHT22;9921;47.186;9.778;2023-09-07T09:55:07;39.40;85.10
19552;DHT22;9921;47.186;9.778;2023-09-07T09:57:39;39.20;84.80
19552;DHT22;9921;47.186;9.778;2023-09-07T10:00:07;38.80;86.10
19552;DHT22;9921;47.186;9.778;2023-09-07T10:02:57;38.50;85.70
19552;DHT22;9921;47.186;9.778;2023-09-07T10:05:26;38.30;87.30
19552;DHT22;9921;47.186;9.778;2023-09-07T10:07:59;38.20;88.20
19552;DHT22;9921;47.186;9.778;2023-09-07T10:10:26;38.30;87.50
19552;DHT22;9921;47.186;9.778;2023-09-07T10:12:59;38.30;85.50
19552;DHT22;9921;47.186;9.778;2023-09-07T10:15:27;38.20;85.30
19552;DHT22;9921;47.186;9.778;2023-09-07T10:18:05;38.10;85.60
19552;DHT22;9921;47.186;9.778;2023-09-07T10:20:50;38.00;85.20
19552;DHT22;9921;47.186;9.778;2023-09-07T10:23:17;37.80;85.20
19552;DHT22;9921;47.186;9.778;2023-09-07T10:25:48;37.70;84.70
19552;DHT22;9921;47.186;9.778;2023-09-07T10:28:31;37.60;86.80
19552;DHT22;9921;47.186;9.778;2023-09-07T10:31:03;37.50;88.90
19552;DHT22;9921;47.186;9.778;2023-09-07T10:33:30;37.30;88.50
19552;DHT22;9921;47.186;9.778;2023-09-07T10:35:58;37.20;87.70
19552;DHT22;9921;47.186;9.778;2023-09-07T10:38:25;37.00;87.90
19552;DHT22;9921;47.186;9.778;2023-09-07T10:40:56;36.90;88.30
19552;DHT22;9921;47.186;9.778;2023-09-07T10:43:26;36.80;87.80
19552;DHT22;9921;47.186;9.778;2023-09-07T10:45:54;36.80;85.80
19552;DHT22;9921;47.186;9.778;2023-09-07T10:48:21;36.90;88.40
19552;DHT22;9921;47.186;9.778;2023-09-07T10:50:49;36.90;87.60
19552;DHT22;9921;47.186;9.778;2023-09-07T10:53:26;37.00;87.50
19552;DHT22;9921;47.186;9.778;2023-09-07T10:55:54;37.20;88.50
19552;DHT22;9921;47.186;9.778;2023-09-07T10:58:31;37.00;88.00
19552;DHT22;9921;47.186;9.778;2023-09-07T11:00:59;36.90;88.10
19552;DHT22;9921;47.186;9.778;2023-09-07T11:03:27;36.80;88.20
19552;DHT22;9921;47.186;9.778;2023-09-07T11:05:55;36.60;87.70
19552;DHT22;9921;47.186;9.778;2023-09-07T11:08:24;36.50;89.50
19552;DHT22;9921;47.186;9.778;2023-09-07T11:10:52;36.40;89.80
19552;DHT22;9921;47.186;9.778;2023-09-07T11:13:19;36.30;90.00
19552;DHT22;9921;47.186;9.778;2023-09-07T11:15:47;36.30;88.10
19552;DHT22;9921;47.186;9.778;2023-09-07T11:18:19;36.10;88.00
19552;DHT22;9921;47.186;9.778;2023-09-07T11:20:46;35.90;88.00
19552;DHT22;9921;47.186;9.778;2023-09-07T11:23:13;35.60;90.20
19552;DHT22;9921;47.186;9.778;2023-09-07T11:25:43;35.50;90.40
19552;DHT22;9921;47.186;9.778;2023-09-07T11:28:10;35.40;90.90
19552;DHT22;9921;47.186;9.778;2023-09-07T11:30:37;35.30;90.80
19552;DHT22;9921;47.186;9.778;2023-09-07T11:33:16;35.40;90.50
19552;DHT22;9921;47.186;9.778;2023-09-07T11:35:44;35.50;91.10
19552;DHT22;9921;47.186;9.778;2023-09-07T11:38:14;35.60;91.10
19552;DHT22;9921;47.186;9.778;2023-09-07T11:40:41;35.60;90.50
19552;DHT22;9921;47.186;9.778;2023-09-07T11:43:10;35.60;91.10
19552;DHT22;9921;47.186;9.778;2023-09-07T11:45:38;35.50;90.50
19552;DHT22;9921;47.186;9.778;2023-09-07T11:48:05;35.30;90.50
19552;DHT22;9921;47.186;9.778;2023-09-07T11:50:36;35.20;90.60
19552;DHT22;9921;47.186;9.778;2023-09-07T11:53:03;35.20;91.20
19552;DHT22;9921;47.186;9.778;2023-09-07T11:55:30;35.10;90.90
19552;DHT22;9921;47.186;9.778;2023-09-07T11:57:57;35.10;91.20
19552;DHT22;9921;47.186;9.778;2023-09-07T12:00:24;35.00;91.20
19552;DHT22;9921;47.186;9.778;2023-09-07T12:02:51;34.90;92.00
19552;DHT22;9921;47.186;9.778;2023-09-07T12:05:18;34.90;92.40
19552;DHT22;9921;47.186;9.778;2023-09-07T12:07:46;34.80;92.40
19552;DHT22;9921;47.186;9.778;2023-09-07T12:10:13;34.80;92.50
19552;DHT22;9921;47.186;9.778;2023-09-07T12:12:40;34.80;92.70
19552;DHT22;9921;47.186;9.778;2023-09-07T12:15:08;34.70;92.40
19552;DHT22;9921;47.186;9.778;2023-09-07T12:17:37;34.60;92.60
19552;DHT22;9921;47.186;9.778;2023-09-07T12:20:04;34.60;93.10
19552;DHT22;9921;47.186;9.778;2023-09-07T12:22:35;34.60;93.30
19552;DHT22;9921;47.186;9.778;2023-09-07T12:25:04;34.60;93.80
19552;DHT22;9921;47.186;9.778;2023-09-07T12:27:33;34.60;93.90
19552;DHT22;9921;47.186;9.778;2023-09-07T12:30:00;34.70;94.40
19552;DHT22;9921;47.186;9.778;2023-09-07T12:32:31;34.60;94.40
19552;DHT22;9921;47.186;9.778;2023-09-07T12:34:59;34.50;94.50
19552;DHT22;9921;47.186;9.778;2023-09-07T12:37:27;34.40;94.40
19552;DHT22;9921;47.186;9.778;2023-09-07T12:39:54;34.20;94.40
19552;DHT22;9921;47.186;9.778;2023-09-07T12:42:22;34.00;94.80
19552;DHT22;9921;47.186;9.778;2023-09-07T12:44:50;33.90;94.70
19552;DHT22;9921;47.186;9.778;2023-09-07T12:47:16;33.70;95.20
19552;DHT22;9921;47.186;9.778;2023-09-07T12:49:43;33.50;94.90
19552;DHT22;9921;47.186;9.778;2023-09-07T12:52:10;33.40;95.40
19552;DHT22;9921;47.186;9.778;2023-09-07T12:54:38;33.20;94.80
19552;DHT22;9921;47.186;9.778;2023-09-07T12:57:05;33.10;95.50
19552;DHT22;9921;47.186;9.778;2023-09-07T12:59:34;32.80;95.30
19552;DHT22;9921;47.186;9.778;2023-09-07T13:02:01;32.80;96.20
19552;DHT22;9921;47.186;9.778;2023-09-07T13:04:28;32.80;96.50
19552;DHT22;9921;47.186;9.778;2023-09-07T13:06:55;32.90;96.60
19552;DHT22;9921;47.186;9.778;2023-09-07T13:09:22;33.00;96.40
19552;DHT22;9921;47.186;9.778;2023-09-07T13:11:49;33.00;96.40
19552;DHT22;9921;47.186;9.778;2023-09-07T13:14:16;32.90;97.20
19552;DHT22;9921;47.186;9.778;2023-09-07T13:16:44;32.90;97.60
19552;DHT22;9921;47.186;9.778;2023-09-07T13:19:11;32.90;96.80
19552;DHT22;9921;47.186;9.778;2023-09-07T13:21:37;32.90;97.10
19552;DHT22;9921;47.186;9.778;2023-09-07T13:24:05;32.80;97.00
19552;DHT22;9921;47.186;9.778;2023-09-07T13:26:32;32.80;97.30
19552;DHT22;9921;47.186;9.778;2023-09-07T13:28:59;32.80;97.50
19552;DHT22;9921;47.186;9.778;2023-09-07T13:31:26;32.80;97.50
19552;DHT22;9921;47.186;9.778;2023-09-07T13:33:54;32.80;98.00
19552;DHT22;9921;47.186;9.778;2023-09-07T13:36:20;32.80;98.10
19552;DHT22;9921;47.186;9.778;2023-09-07T13:38:47;32.90;98.10
19552;DHT22;9921;47.186;9.778;2023-09-07T13:41:14;33.00;97.80
19552;DHT22;9921;47.186;9.778;2023-09-07T13:43:41;32.90;97.50
19552;DHT22;9921;47.186;9.778;2023-09-07T13:46:08;32.90;97.80
19552;DHT22;9921;47.186;9.778;2023-09-07T13:48:35;32.90;97.60
19552;DHT22;9921;47.186;9.778;2023-09-07T13:51:03;32.90;97.60
19552;DHT22;9921;47.186;9.778;2023-09-07T13:53:30;32.80;97.90
19552;DHT22;9921;47.186;9.778;2023-09-07T13:55:56;32.80;97.60
19552;DHT22;9921;47.186;9.778;2023-09-07T13:58:23;32.70;97.70
19552;DHT22;9921;47.186;9.778;2023-09-07T14:00:50;32.70;97.70
19552;DHT22;9921;47.186;9.778;2023-09-07T14:03:17;32.60;97.60
19552;DHT22;9921;47.186;9.778;2023-09-07T14:05:44;32.60;97.90
19552;DHT22;9921;47.186;9.778;2023-09-07T14:08:12;32.60;98.30
19552;DHT22;9921;47.186;9.778;2023-09-07T14:10:39;32.60;98.40
19552;DHT22;9921;47.186;9.778;2023-09-07T14:13:06;32.60;98.10
19552;DHT22;9921;47.186;9.778;2023-09-07T14:15:33;32.50;97.90
19552;DHT22;9921;47.186;9.778;2023-09-07T14:18:00;32.40;97.40
19552;DHT22;9921;47.186;9.778;2023-09-07T14:20:28;32.40;98.10
19552;DHT22;9921;47.186;9.778;2023-09-07T14:22:55;32.40;97.90
19552;DHT22;9921;47.186;9.778;2023-09-07T14:25:25;32.40;98.00
19552;DHT22;9921;47.186;9.778;2023-09-07T14:27:52;32.40;98.20
19552;DHT22;9921;47.186;9.778;2023-09-07T14:30:18;32.40;98.50
19552;DHT22;9921;47.186;9.778;2023-09-07T14:32:45;32.40;98.70
19552;DHT22;9921;47.186;9.778;2023-09-07T14:35:14;32.50;98.30
19552;DHT22;9921;47.186;9.778;2023-09-07T14:37:41;32.40;98.70
19552;DHT22;9921;47.186;9.778;2023-09-07T14:40:08;32.50;98.70
19552;DHT22;9921;47.186;9.778;2023-09-07T14:42:37;32.50;98.70
19552;DHT22;9921;47.186;9.778;2023-09-07T14:45:05;32.60;98.40
19552;DHT22;9921;47.186;9.778;2023-09-07T14:47:32;32.60;98.40
19552;DHT22;9921;47.186;9.778;2023-09-07T14:49:59;32.60;98.40
19552;DHT22;9921;47.186;9.778;2023-09-07T14:52:26;32.60;98.30
19552;DHT22;9921;47.186;9.778;2023-09-07T14:54:53;32.60;98.30
19552;DHT22;9921;47.186;9.778;2023-09-07T14:57:19;32.60;98.40
19552;DHT22;9921;47.186;9.778;2023-09-07T14:59:48;32.50;98.50
19552;DHT22;9921;47.186;9.778;2023-09-07T15:02:15;32.40;99.00
19552;DHT22;9921;47.186;9.778;2023-09-07T15:04:42;32.40;99.00
19552;DHT22;9921;47.186;9.778;2023-09-07T15:07:10;32.20;98.70
19552;DHT22;9921;47.186;9.778;2023-09-07T15:09:37;32.20;99.10
19552;DHT22;9921;47.186;9.778;2023-09-07T15:12:04;32.20;99.00
19552;DHT22;9921;47.186;9.778;2023-09-07T15:14:31;32.20;99.20
19552;DHT22;9921;47.186;9.778;2023-09-07T15:17:00;32.10;99.60
19552;DHT22;9921;47.186;9.778;2023-09-07T15:19:27;32.00;99.90
19552;DHT22;9921;47.186;9.778;2023-09-07T15:21:54;31.90;99.90
19552;DHT22;9921;47.186;9.778;2023-09-07T15:24:20;31.90;99.90
19552;DHT22;9921;47.186;9.778;2023-09-07T15:26:47;31.80;99.90
19552;DHT22;9921;47.186;9.778;2023-09-07T15:29:14;31.80;99.90
19552;DHT22;9921;47.186;9.778;2023-09-07T15:31:41;31.70;99.90
19552;DHT22;9921;47.186;9.778;2023-09-07T15:34:09;31.60;99.90
19552;DHT22;9921;47.186;9.778;2023-09-07T15:36:36;31.50;99.90
19552;DHT22;9921;47.186;9.778;2023-09-07T15:39:04;31.40;99.90
19552;DHT22;9921;47.186;9.778;2023-09-07T15:41:31;31.30;99.90
19552;DHT22;9921;47.186;9.778;2023-09-07T15:43:57;31.20;99.90
19552;DHT22;9921;47.186;9.778;2023-09-07T15:46:24;31.10;99.90
19552;DHT22;9921;47.186;9.778;2023-09-07T15:48:52;31.10;99.90